N19PA KPHX-KSAN
Flight info
| Callsign | N19PA |
|---|---|
| Flight time | N/A |
| Altitude | 10000 |
| Route | FYRBD1 MOHAK HOGGZ LUCKI1 |
| Aircraft | DA62/L-V/N |
Departure
| Time | 2026-04-30 22:11 |
|---|---|
| Airport | Phoenix Sky Harbor International Airport (KPHX) |
Arrival
| Time | N/A |
|---|---|
| Airport | San Diego International Airport (KSAN) |
| Time | Latitude | Longitude | Altitude | Speed | Heading |
|---|---|---|---|---|---|
| 2026-04-30 21:50 | 33.43452 | -112.02646 | 1125 ft | 0 kts | 1° |
| 2026-04-30 22:02 | 33.43471 | -112.02643 | 1115 ft | 0 kts | 48° |
| 2026-04-30 22:02 | 33.43472 | -112.02640 | 1118 ft | 0 kts | 120° |
| 2026-04-30 22:02 | 33.43458 | -112.02636 | 1121 ft | 0 kts | 175° |
| 2026-04-30 22:02 | 33.43418 | -112.02635 | 1125 ft | 12 kts | 184° |
| 2026-04-30 22:03 | 33.43341 | -112.02632 | 1124 ft | 10 kts | 165° |
| 2026-04-30 22:03 | 33.43331 | -112.02629 | 1124 ft | 0 kts | 199° |
| 2026-04-30 22:03 | 33.43326 | -112.02652 | 1123 ft | 10 kts | 264° |
| 2026-04-30 22:03 | 33.43312 | -112.02694 | 1121 ft | 4 kts | 201° |
| 2026-04-30 22:04 | 33.43237 | -112.02655 | 1124 ft | 13 kts | 130° |
| 2026-04-30 22:04 | 33.43219 | -112.02579 | 1123 ft | 18 kts | 91° |
| 2026-04-30 22:04 | 33.43219 | -112.02120 | 1124 ft | 36 kts | 89° |
| 2026-04-30 22:05 | 33.43218 | -112.01785 | 1124 ft | 43 kts | 92° |
| 2026-04-30 22:05 | 33.43216 | -112.01444 | 1123 ft | 39 kts | 90° |
| 2026-04-30 22:05 | 33.43215 | -112.01036 | 1125 ft | 35 kts | 90° |
| 2026-04-30 22:05 | 33.43215 | -112.00839 | 1125 ft | 34 kts | 90° |
| 2026-04-30 22:06 | 33.43215 | -112.00562 | 1126 ft | 33 kts | 90° |
| 2026-04-30 22:06 | 33.43215 | -112.00020 | 1126 ft | 33 kts | 89° |
| 2026-04-30 22:06 | 33.43213 | -111.99748 | 1126 ft | 32 kts | 89° |
| 2026-04-30 22:07 | 33.43205 | -111.99525 | 1127 ft | 14 kts | 129° |
| 2026-04-30 22:07 | 33.43198 | -111.99518 | 1120 ft | 0 kts | 161° |
| 2026-04-30 22:10 | 33.43197 | -111.99518 | 1127 ft | 3 kts | 162° |
| 2026-04-30 22:10 | 33.43124 | -111.99581 | 1131 ft | 26 kts | 251° |
| 2026-04-30 22:10 | 33.43105 | -111.99918 | 1128 ft | 61 kts | 270° |
| 2026-04-30 22:10 | 33.43108 | -112.00561 | 1148 ft | 93 kts | 271° |
| 2026-04-30 22:11 | 33.43036 | -112.02332 | 1466 ft | 123 kts | 266° |
| 2026-04-30 22:11 | 33.42987 | -112.03392 | 1633 ft | 131 kts | 268° |
| 2026-04-30 22:11 | 33.42943 | -112.04484 | 1795 ft | 135 kts | 267° |
| 2026-04-30 22:12 | 33.42879 | -112.05615 | 2002 ft | 137 kts | 258° |
| 2026-04-30 22:12 | 33.42576 | -112.06695 | 2187 ft | 137 kts | 253° |
| 2026-04-30 22:12 | 33.42293 | -112.07780 | 2368 ft | 137 kts | 253° |
| 2026-04-30 22:12 | 33.41998 | -112.08866 | 2520 ft | 138 kts | 252° |
| 2026-04-30 22:13 | 33.41702 | -112.09962 | 2639 ft | 140 kts | 253° |
| 2026-04-30 22:13 | 33.41402 | -112.11072 | 2839 ft | 140 kts | 252° |
| 2026-04-30 22:13 | 33.41102 | -112.12186 | 3037 ft | 141 kts | 252° |
| 2026-04-30 22:13 | 33.40800 | -112.13299 | 3215 ft | 141 kts | 252° |
| 2026-04-30 22:14 | 33.40498 | -112.14419 | 3377 ft | 141 kts | 251° |
| 2026-04-30 22:14 | 33.40192 | -112.15539 | 3557 ft | 141 kts | 252° |
| 2026-04-30 22:14 | 33.39895 | -112.16641 | 3764 ft | 141 kts | 251° |
| 2026-04-30 22:14 | 33.39364 | -112.17621 | 4004 ft | 142 kts | 225° |
| 2026-04-30 22:15 | 33.38529 | -112.18262 | 4235 ft | 146 kts | 202° |
| 2026-04-30 22:15 | 33.37516 | -112.18430 | 4481 ft | 150 kts | 178° |
| 2026-04-30 22:15 | 33.36487 | -112.18120 | 4708 ft | 153 kts | 166° |
| 2026-04-30 22:15 | 33.35462 | -112.17760 | 4947 ft | 154 kts | 167° |
| 2026-04-30 22:16 | 33.34428 | -112.17396 | 5146 ft | 155 kts | 166° |
| 2026-04-30 22:16 | 33.33395 | -112.17031 | 5357 ft | 155 kts | 167° |
| 2026-04-30 22:17 | 33.30205 | -112.16004 | 5743 ft | 161 kts | 184° |
| 2026-04-30 22:17 | 33.29196 | -112.16229 | 6256 ft | 134 kts | 203° |
| 2026-04-30 22:17 | 33.28003 | -112.17327 | 7312 ft | 94 kts | 236° |
| 2026-04-30 22:18 | 33.27611 | -112.17933 | 7698 ft | 92 kts | 234° |
| 2026-04-30 22:18 | 33.26843 | -112.19120 | 8381 ft | 89 kts | 234° |
| 2026-04-30 22:19 | 33.26082 | -112.20300 | 9016 ft | 90 kts | 235° |
| 2026-04-30 22:19 | 33.25702 | -112.20893 | 9356 ft | 90 kts | 234° |
| 2026-04-30 22:19 | 33.24883 | -112.22170 | 9787 ft | 119 kts | 234° |
| 2026-04-30 22:20 | 33.24320 | -112.23049 | 9788 ft | 143 kts | 234° |
| 2026-04-30 22:20 | 33.22980 | -112.25131 | 9785 ft | 168 kts | 233° |
| 2026-04-30 22:20 | 33.22249 | -112.26264 | 9785 ft | 175 kts | 233° |
| 2026-04-30 22:21 | 33.21499 | -112.27428 | 9782 ft | 178 kts | 233° |
| 2026-04-30 22:21 | 33.20741 | -112.28607 | 9783 ft | 179 kts | 233° |
| 2026-04-30 22:21 | 33.19988 | -112.29777 | 9780 ft | 180 kts | 233° |
| 2026-04-30 22:21 | 33.19224 | -112.30963 | 9773 ft | 180 kts | 233° |
| 2026-04-30 22:22 | 33.18459 | -112.32152 | 9774 ft | 180 kts | 233° |
| 2026-04-30 22:22 | 33.17692 | -112.33341 | 9772 ft | 181 kts | 233° |
| 2026-04-30 22:22 | 33.16924 | -112.34532 | 9777 ft | 181 kts | 233° |
| 2026-04-30 22:22 | 33.16159 | -112.35720 | 9772 ft | 180 kts | 233° |
| 2026-04-30 22:23 | 33.15392 | -112.36907 | 9772 ft | 181 kts | 233° |
| 2026-04-30 22:23 | 33.14625 | -112.38098 | 9765 ft | 180 kts | 233° |
| 2026-04-30 22:23 | 33.13860 | -112.39282 | 9768 ft | 180 kts | 233° |
| 2026-04-30 22:23 | 33.13096 | -112.40466 | 9763 ft | 180 kts | 233° |
| 2026-04-30 22:24 | 33.12335 | -112.41643 | 9761 ft | 179 kts | 233° |
| 2026-04-30 22:24 | 33.11574 | -112.42822 | 9764 ft | 179 kts | 233° |
| 2026-04-30 22:24 | 33.10813 | -112.44003 | 9762 ft | 180 kts | 233° |
| 2026-04-30 22:24 | 33.10049 | -112.45181 | 9757 ft | 179 kts | 233° |
| 2026-04-30 22:25 | 33.09288 | -112.46359 | 9759 ft | 179 kts | 233° |
| 2026-04-30 22:25 | 33.08524 | -112.47539 | 9765 ft | 180 kts | 233° |
| 2026-04-30 22:25 | 33.07759 | -112.48722 | 9765 ft | 180 kts | 233° |
| 2026-04-30 22:25 | 33.07005 | -112.49889 | 9767 ft | 180 kts | 232° |
| 2026-04-30 22:26 | 33.05472 | -112.52255 | 9766 ft | 180 kts | 232° |
| 2026-04-30 22:26 | 33.04705 | -112.53437 | 9766 ft | 180 kts | 233° |
| 2026-04-30 22:26 | 33.03942 | -112.54617 | 9763 ft | 179 kts | 233° |
| 2026-04-30 22:27 | 33.03177 | -112.55798 | 9771 ft | 179 kts | 232° |
| 2026-04-30 22:27 | 33.02413 | -112.56975 | 9771 ft | 179 kts | 232° |
| 2026-04-30 22:27 | 33.00889 | -112.59325 | 9769 ft | 179 kts | 232° |
| 2026-04-30 22:28 | 32.99365 | -112.61671 | 9770 ft | 179 kts | 232° |
| 2026-04-30 22:28 | 32.98603 | -112.62844 | 9769 ft | 179 kts | 233° |
| 2026-04-30 22:29 | 32.96319 | -112.66357 | 9778 ft | 179 kts | 232° |
| 2026-04-30 22:29 | 32.95687 | -112.67627 | 9777 ft | 179 kts | 249° |
| 2026-04-30 22:30 | 32.94835 | -112.73455 | 9780 ft | 180 kts | 259° |
| 2026-04-30 22:31 | 32.94242 | -112.77862 | 9777 ft | 179 kts | 260° |
| 2026-04-30 22:32 | 32.93649 | -112.82261 | 9781 ft | 181 kts | 260° |
| 2026-04-30 22:32 | 32.93250 | -112.85219 | 9772 ft | 181 kts | 260° |
| 2026-04-30 22:33 | 32.92653 | -112.89620 | 9773 ft | 179 kts | 259° |
| 2026-04-30 22:33 | 32.92259 | -112.92548 | 9773 ft | 182 kts | 260° |
| 2026-04-30 22:34 | 32.91648 | -112.97006 | 9769 ft | 183 kts | 260° |
| 2026-04-30 22:35 | 32.91246 | -112.99975 | 9765 ft | 180 kts | 260° |
| 2026-04-30 22:36 | 32.90441 | -113.05865 | 9764 ft | 180 kts | 260° |
| 2026-04-30 22:36 | 32.90241 | -113.07319 | 9770 ft | 181 kts | 260° |
| 2026-04-30 22:37 | 32.89636 | -113.11733 | 9759 ft | 179 kts | 261° |
| 2026-04-30 22:37 | 32.89434 | -113.13194 | 9763 ft | 179 kts | 261° |
| 2026-04-30 22:37 | 32.89031 | -113.16121 | 9759 ft | 179 kts | 261° |
| 2026-04-30 22:38 | 32.88628 | -113.19048 | 9764 ft | 179 kts | 261° |
| 2026-04-30 22:38 | 32.88223 | -113.21977 | 9758 ft | 179 kts | 261° |
| 2026-04-30 22:39 | 32.88021 | -113.23434 | 9762 ft | 179 kts | 261° |
| 2026-04-30 22:39 | 32.87412 | -113.27826 | 9767 ft | 180 kts | 261° |
| 2026-04-30 22:40 | 32.86802 | -113.32215 | 9760 ft | 180 kts | 261° |
| 2026-04-30 22:41 | 32.86191 | -113.36603 | 9753 ft | 178 kts | 261° |
| 2026-04-30 22:41 | 32.85785 | -113.39514 | 9758 ft | 178 kts | 261° |
| 2026-04-30 22:42 | 32.84971 | -113.45326 | 9758 ft | 178 kts | 261° |
| 2026-04-30 22:43 | 32.84564 | -113.48230 | 9754 ft | 178 kts | 261° |
| 2026-04-30 22:43 | 32.84156 | -113.51127 | 9753 ft | 177 kts | 261° |
| 2026-04-30 22:44 | 32.83752 | -113.53998 | 9752 ft | 177 kts | 261° |
| 2026-04-30 22:45 | 32.82935 | -113.59777 | 9762 ft | 178 kts | 261° |
| 2026-04-30 22:45 | 32.82525 | -113.62674 | 9748 ft | 178 kts | 261° |
| 2026-04-30 22:46 | 32.82110 | -113.65592 | 9750 ft | 179 kts | 261° |
| 2026-04-30 22:47 | 32.81275 | -113.71488 | 9755 ft | 182 kts | 261° |
| 2026-04-30 22:47 | 32.80851 | -113.74445 | 9751 ft | 181 kts | 261° |
| 2026-04-30 22:48 | 32.80435 | -113.77374 | 9745 ft | 178 kts | 261° |
| 2026-04-30 22:49 | 32.79806 | -113.81770 | 9749 ft | 180 kts | 260° |
| 2026-04-30 22:49 | 32.79175 | -113.86168 | 9744 ft | 180 kts | 260° |
| 2026-04-30 22:50 | 32.78406 | -113.91513 | 9739 ft | 178 kts | 260° |
| 2026-04-30 22:51 | 32.77921 | -113.94883 | 9743 ft | 177 kts | 260° |
| 2026-04-30 22:51 | 32.77584 | -113.97302 | 9738 ft | 177 kts | 264° |
| 2026-04-30 22:52 | 32.77573 | -113.98767 | 9743 ft | 177 kts | 269° |
| 2026-04-30 22:52 | 32.77541 | -114.01686 | 9744 ft | 177 kts | 269° |
| 2026-04-30 22:53 | 32.77510 | -114.04607 | 9748 ft | 177 kts | 269° |
| 2026-04-30 22:53 | 32.77508 | -114.07504 | 9761 ft | 178 kts | 272° |
| 2026-04-30 22:53 | 32.77575 | -114.08970 | 9750 ft | 177 kts | 271° |
| 2026-04-30 22:54 | 32.77690 | -114.11904 | 9757 ft | 178 kts | 272° |
| 2026-04-30 22:55 | 32.77866 | -114.16311 | 9760 ft | 178 kts | 271° |
| 2026-04-30 22:55 | 32.77985 | -114.19245 | 9762 ft | 178 kts | 271° |
| 2026-04-30 22:56 | 32.78100 | -114.22162 | 9770 ft | 176 kts | 271° |
| 2026-04-30 22:56 | 32.78274 | -114.26535 | 9773 ft | 177 kts | 271° |
| 2026-04-30 22:57 | 32.78388 | -114.29445 | 9778 ft | 177 kts | 271° |
| 2026-04-30 22:57 | 32.78503 | -114.32391 | 9777 ft | 178 kts | 271° |
| 2026-04-30 22:58 | 32.78615 | -114.35314 | 9779 ft | 177 kts | 271° |
| 2026-04-30 22:59 | 32.79025 | -114.39647 | 9779 ft | 178 kts | 287° |
| 2026-04-30 22:59 | 32.80185 | -114.43846 | 9782 ft | 178 kts | 285° |